sensor_id;sensor_type;location;lat;lon;timestamp;temperature;humidity
14172;DHT22;7165;52.388;4.928;2022-09-14T00:00:00;15.30;99.90
14172;DHT22;7165;52.388;4.928;2022-09-14T00:02:28;15.20;99.90
14172;DHT22;7165;52.388;4.928;2022-09-14T00:04:55;15.20;99.90
14172;DHT22;7165;52.388;4.928;2022-09-14T00:07:22;15.20;99.90
14172;DHT22;7165;52.388;4.928;2022-09-14T00:09:50;15.20;99.90
14172;DHT22;7165;52.388;4.928;2022-09-14T00:12:17;15.20;99.90
14172;DHT22;7165;52.388;4.928;2022-09-14T00:14:44;15.20;99.90
14172;DHT22;7165;52.388;4.928;2022-09-14T00:17:11;15.20;99.90
14172;DHT22;7165;52.388;4.928;2022-09-14T00:19:39;15.20;99.90
14172;DHT22;7165;52.388;4.928;2022-09-14T00:22:06;15.20;99.90
14172;DHT22;7165;52.388;4.928;2022-09-14T00:24:33;15.20;99.90
14172;DHT22;7165;52.388;4.928;2022-09-14T00:26:59;15.30;99.90
14172;DHT22;7165;52.388;4.928;2022-09-14T00:29:27;15.30;99.90
14172;DHT22;7165;52.388;4.928;2022-09-14T00:31:54;15.30;99.90
14172;DHT22;7165;52.388;4.928;2022-09-14T00:34:21;15.30;99.90
14172;DHT22;7165;52.388;4.928;2022-09-14T00:36:50;15.30;99.90
14172;DHT22;7165;52.388;4.928;2022-09-14T00:39:18;15.30;99.90
14172;DHT22;7165;52.388;4.928;2022-09-14T00:41:47;15.30;99.90
14172;DHT22;7165;52.388;4.928;2022-09-14T00:47:19;15.30;99.90
14172;DHT22;7165;52.388;4.928;2022-09-14T00:49:46;15.30;99.90
14172;DHT22;7165;52.388;4.928;2022-09-14T00:52:17;15.30;99.90
14172;DHT22;7165;52.388;4.928;2022-09-14T00:54:46;15.40;99.90
14172;DHT22;7165;52.388;4.928;2022-09-14T00:57:14;15.40;99.90
14172;DHT22;7165;52.388;4.928;2022-09-14T00:59:42;15.40;99.90
14172;DHT22;7165;52.388;4.928;2022-09-14T01:02:11;15.40;99.90
14172;DHT22;7165;52.388;4.928;2022-09-14T01:04:39;15.40;99.90
14172;DHT22;7165;52.388;4.928;2022-09-14T01:07:12;15.40;99.90
14172;DHT22;7165;52.388;4.928;2022-09-14T01:09:48;15.50;99.90
14172;DHT22;7165;52.388;4.928;2022-09-14T01:12:22;15.50;99.90
14172;DHT22;7165;52.388;4.928;2022-09-14T01:14:55;15.50;99.90
14172;DHT22;7165;52.388;4.928;2022-09-14T01:17:29;15.50;99.90
14172;DHT22;7165;52.388;4.928;2022-09-14T01:20:12;15.50;99.90
14172;DHT22;7165;52.388;4.928;2022-09-14T01:22:46;15.50;99.90
14172;DHT22;7165;52.388;4.928;2022-09-14T01:25:27;15.40;99.90
14172;DHT22;7165;52.388;4.928;2022-09-14T01:28:03;15.40;99.90
14172;DHT22;7165;52.388;4.928;2022-09-14T01:30:34;15.40;99.90
14172;DHT22;7165;52.388;4.928;2022-09-14T01:33:10;15.40;99.90
14172;DHT22;7165;52.388;4.928;2022-09-14T01:35:42;15.40;99.90
14172;DHT22;7165;52.388;4.928;2022-09-14T01:38:17;15.30;99.90
14172;DHT22;7165;52.388;4.928;2022-09-14T01:40:48;15.30;99.90
14172;DHT22;7165;52.388;4.928;2022-09-14T01:43:19;15.30;99.90
14172;DHT22;7165;52.388;4.928;2022-09-14T01:45:50;15.30;99.90
14172;DHT22;7165;52.388;4.928;2022-09-14T01:48:21;15.30;99.90
14172;DHT22;7165;52.388;4.928;2022-09-14T01:50:52;15.30;99.90
14172;DHT22;7165;52.388;4.928;2022-09-14T01:53:24;15.30;99.90
14172;DHT22;7165;52.388;4.928;2022-09-14T01:55:54;15.30;99.90
14172;DHT22;7165;52.388;4.928;2022-09-14T01:58:27;15.40;99.90
14172;DHT22;7165;52.388;4.928;2022-09-14T02:00:57;15.30;99.90
14172;DHT22;7165;52.388;4.928;2022-09-14T02:03:29;15.30;99.90
14172;DHT22;7165;52.388;4.928;2022-09-14T02:06:02;15.30;99.90
14172;DHT22;7165;52.388;4.928;2022-09-14T02:08:31;15.40;99.90
14172;DHT22;7165;52.388;4.928;2022-09-14T02:10:58;15.40;99.90
14172;DHT22;7165;52.388;4.928;2022-09-14T02:13:27;15.40;99.90
14172;DHT22;7165;52.388;4.928;2022-09-14T02:15:55;15.40;99.90
14172;DHT22;7165;52.388;4.928;2022-09-14T02:18:21;15.40;99.90
14172;DHT22;7165;52.388;4.928;2022-09-14T02:20:53;15.40;99.90
14172;DHT22;7165;52.388;4.928;2022-09-14T02:23:20;15.40;99.90
14172;DHT22;7165;52.388;4.928;2022-09-14T02:25:47;15.40;99.90
14172;DHT22;7165;52.388;4.928;2022-09-14T02:28:15;15.30;99.90
14172;DHT22;7165;52.388;4.928;2022-09-14T02:30:57;15.40;99.90
14172;DHT22;7165;52.388;4.928;2022-09-14T02:33:32;15.40;99.90
14172;DHT22;7165;52.388;4.928;2022-09-14T02:36:04;15.40;99.90
14172;DHT22;7165;52.388;4.928;2022-09-14T02:38:36;15.40;99.90
14172;DHT22;7165;52.388;4.928;2022-09-14T02:41:10;15.40;99.90
14172;DHT22;7165;52.388;4.928;2022-09-14T02:43:47;15.40;99.90
14172;DHT22;7165;52.388;4.928;2022-09-14T02:46:18;15.40;99.90
14172;DHT22;7165;52.388;4.928;2022-09-14T02:48:49;15.40;99.90
14172;DHT22;7165;52.388;4.928;2022-09-14T02:51:24;15.40;99.90
14172;DHT22;7165;52.388;4.928;2022-09-14T02:53:55;15.40;99.90
14172;DHT22;7165;52.388;4.928;2022-09-14T02:56:24;15.40;99.90
14172;DHT22;7165;52.388;4.928;2022-09-14T02:58:51;15.40;99.90
14172;DHT22;7165;52.388;4.928;2022-09-14T03:01:20;15.40;99.90
14172;DHT22;7165;52.388;4.928;2022-09-14T03:03:47;15.40;99.90
14172;DHT22;7165;52.388;4.928;2022-09-14T03:06:14;15.40;99.90
14172;DHT22;7165;52.388;4.928;2022-09-14T03:08:42;15.40;99.90
14172;DHT22;7165;52.388;4.928;2022-09-14T03:11:09;15.40;99.90
14172;DHT22;7165;52.388;4.928;2022-09-14T03:13:36;15.40;99.90
14172;DHT22;7165;52.388;4.928;2022-09-14T03:16:04;15.40;99.90
14172;DHT22;7165;52.388;4.928;2022-09-14T03:18:33;15.40;99.90
14172;DHT22;7165;52.388;4.928;2022-09-14T03:21:04;15.50;99.90
14172;DHT22;7165;52.388;4.928;2022-09-14T03:23:35;15.50;99.90
14172;DHT22;7165;52.388;4.928;2022-09-14T03:26:06;15.50;99.90
14172;DHT22;7165;52.388;4.928;2022-09-14T03:28:33;15.50;99.90
14172;DHT22;7165;52.388;4.928;2022-09-14T03:30:59;15.50;99.90
14172;DHT22;7165;52.388;4.928;2022-09-14T03:33:26;15.50;99.90
14172;DHT22;7165;52.388;4.928;2022-09-14T03:35:54;15.50;99.90
14172;DHT22;7165;52.388;4.928;2022-09-14T03:38:21;15.50;99.90
14172;DHT22;7165;52.388;4.928;2022-09-14T03:40:48;15.50;99.90
14172;DHT22;7165;52.388;4.928;2022-09-14T03:43:15;15.50;99.90
14172;DHT22;7165;52.388;4.928;2022-09-14T03:45:42;15.50;99.90
14172;DHT22;7165;52.388;4.928;2022-09-14T03:48:08;15.50;99.90
14172;DHT22;7165;52.388;4.928;2022-09-14T03:50:36;15.50;99.90
14172;DHT22;7165;52.388;4.928;2022-09-14T03:53:05;15.50;99.90
14172;DHT22;7165;52.388;4.928;2022-09-14T03:55:31;15.50;99.90
14172;DHT22;7165;52.388;4.928;2022-09-14T03:57:58;15.50;99.90
14172;DHT22;7165;52.388;4.928;2022-09-14T04:00:25;15.50;99.90
14172;DHT22;7165;52.388;4.928;2022-09-14T04:02:52;15.50;99.90
14172;DHT22;7165;52.388;4.928;2022-09-14T04:05:19;15.50;99.90
14172;DHT22;7165;52.388;4.928;2022-09-14T04:07:46;15.50;99.90
14172;DHT22;7165;52.388;4.928;2022-09-14T04:10:14;15.50;99.90
14172;DHT22;7165;52.388;4.928;2022-09-14T04:12:41;15.50;99.90
14172;DHT22;7165;52.388;4.928;2022-09-14T04:15:08;15.40;99.90
14172;DHT22;7165;52.388;4.928;2022-09-14T04:17:35;15.40;99.90
14172;DHT22;7165;52.388;4.928;2022-09-14T04:20:02;15.40;99.90
14172;DHT22;7165;52.388;4.928;2022-09-14T04:22:29;15.40;99.90
14172;DHT22;7165;52.388;4.928;2022-09-14T04:24:56;15.40;99.90
14172;DHT22;7165;52.388;4.928;2022-09-14T04:27:24;15.40;99.90
14172;DHT22;7165;52.388;4.928;2022-09-14T04:29:51;15.40;99.90
14172;DHT22;7165;52.388;4.928;2022-09-14T04:32:17;15.40;99.90
14172;DHT22;7165;52.388;4.928;2022-09-14T04:34:44;15.40;99.90
14172;DHT22;7165;52.388;4.928;2022-09-14T04:37:11;15.50;99.90
14172;DHT22;7165;52.388;4.928;2022-09-14T04:39:37;15.50;99.90
14172;DHT22;7165;52.388;4.928;2022-09-14T04:42:05;15.50;99.90
14172;DHT22;7165;52.388;4.928;2022-09-14T04:44:36;15.50;99.90
14172;DHT22;7165;52.388;4.928;2022-09-14T04:47:03;15.50;99.90
14172;DHT22;7165;52.388;4.928;2022-09-14T04:49:30;15.50;99.90
14172;DHT22;7165;52.388;4.928;2022-09-14T04:51:57;15.50;99.90
14172;DHT22;7165;52.388;4.928;2022-09-14T04:54:25;15.50;99.90
14172;DHT22;7165;52.388;4.928;2022-09-14T04:56:53;15.50;99.90
14172;DHT22;7165;52.388;4.928;2022-09-14T04:59:20;15.50;99.90
14172;DHT22;7165;52.388;4.928;2022-09-14T05:01:49;15.40;99.90
14172;DHT22;7165;52.388;4.928;2022-09-14T05:04:15;15.50;99.90
14172;DHT22;7165;52.388;4.928;2022-09-14T05:06:43;15.50;99.90
14172;DHT22;7165;52.388;4.928;2022-09-14T05:09:12;15.50;99.90
14172;DHT22;7165;52.388;4.928;2022-09-14T05:11:39;15.50;99.90
14172;DHT22;7165;52.388;4.928;2022-09-14T05:14:06;15.50;99.90
14172;DHT22;7165;52.388;4.928;2022-09-14T05:16:37;15.50;99.90
14172;DHT22;7165;52.388;4.928;2022-09-14T05:19:06;15.50;99.90
14172;DHT22;7165;52.388;4.928;2022-09-14T05:21:35;15.60;99.90
14172;DHT22;7165;52.388;4.928;2022-09-14T05:24:05;15.50;99.90
14172;DHT22;7165;52.388;4.928;2022-09-14T05:26:32;15.60;99.90
14172;DHT22;7165;52.388;4.928;2022-09-14T05:29:00;15.50;99.90
14172;DHT22;7165;52.388;4.928;2022-09-14T05:31:28;15.50;99.90
14172;DHT22;7165;52.388;4.928;2022-09-14T05:33:55;15.50;99.90
14172;DHT22;7165;52.388;4.928;2022-09-14T05:36:24;15.50;99.90
14172;DHT22;7165;52.388;4.928;2022-09-14T05:38:51;15.50;99.90
14172;DHT22;7165;52.388;4.928;2022-09-14T05:41:17;15.50;99.90
14172;DHT22;7165;52.388;4.928;2022-09-14T05:43:44;15.50;99.90
14172;DHT22;7165;52.388;4.928;2022-09-14T05:46:13;15.50;99.90
14172;DHT22;7165;52.388;4.928;2022-09-14T05:48:40;15.50;99.90
14172;DHT22;7165;52.388;4.928;2022-09-14T05:51:10;15.50;99.90
14172;DHT22;7165;52.388;4.928;2022-09-14T05:53:39;15.60;99.90
14172;DHT22;7165;52.388;4.928;2022-09-14T05:56:09;15.60;99.90
14172;DHT22;7165;52.388;4.928;2022-09-14T05:58:37;15.60;99.90
14172;DHT22;7165;52.388;4.928;2022-09-14T06:01:08;15.60;99.90
14172;DHT22;7165;52.388;4.928;2022-09-14T06:03:35;15.60;99.90
14172;DHT22;7165;52.388;4.928;2022-09-14T06:06:03;15.60;99.90
14172;DHT22;7165;52.388;4.928;2022-09-14T06:08:30;15.60;99.90
14172;DHT22;7165;52.388;4.928;2022-09-14T06:11:03;15.70;99.90
14172;DHT22;7165;52.388;4.928;2022-09-14T06:13:30;15.70;99.90
14172;DHT22;7165;52.388;4.928;2022-09-14T06:16:00;15.70;99.90
14172;DHT22;7165;52.388;4.928;2022-09-14T06:18:29;15.80;99.90
14172;DHT22;7165;52.388;4.928;2022-09-14T06:21:21;15.80;99.90
14172;DHT22;7165;52.388;4.928;2022-09-14T06:23:49;15.90;99.90
14172;DHT22;7165;52.388;4.928;2022-09-14T06:26:18;15.90;99.90
14172;DHT22;7165;52.388;4.928;2022-09-14T06:28:45;16.00;99.90
14172;DHT22;7165;52.388;4.928;2022-09-14T06:31:13;16.00;99.90
14172;DHT22;7165;52.388;4.928;2022-09-14T06:33:42;16.00;99.90
14172;DHT22;7165;52.388;4.928;2022-09-14T06:36:10;16.10;99.90
14172;DHT22;7165;52.388;4.928;2022-09-14T06:38:39;16.10;99.90
14172;DHT22;7165;52.388;4.928;2022-09-14T06:41:08;16.20;99.90
14172;DHT22;7165;52.388;4.928;2022-09-14T06:43:39;16.20;99.90
14172;DHT22;7165;52.388;4.928;2022-09-14T06:46:09;16.20;99.90
14172;DHT22;7165;52.388;4.928;2022-09-14T06:48:38;16.30;99.90
14172;DHT22;7165;52.388;4.928;2022-09-14T06:51:11;16.30;99.90
14172;DHT22;7165;52.388;4.928;2022-09-14T06:53:38;16.40;99.90
14172;DHT22;7165;52.388;4.928;2022-09-14T06:56:05;16.50;99.90
14172;DHT22;7165;52.388;4.928;2022-09-14T06:58:32;16.60;99.90
14172;DHT22;7165;52.388;4.928;2022-09-14T07:01:02;16.70;99.90
14172;DHT22;7165;52.388;4.928;2022-09-14T07:03:29;16.80;99.90
14172;DHT22;7165;52.388;4.928;2022-09-14T07:06:01;16.90;99.90
14172;DHT22;7165;52.388;4.928;2022-09-14T07:08:28;17.00;99.90
14172;DHT22;7165;52.388;4.928;2022-09-14T07:10:55;17.10;99.90
14172;DHT22;7165;52.388;4.928;2022-09-14T07:13:23;17.10;99.90
14172;DHT22;7165;52.388;4.928;2022-09-14T07:15:50;17.20;99.90
14172;DHT22;7165;52.388;4.928;2022-09-14T07:18:18;17.30;99.90
14172;DHT22;7165;52.388;4.928;2022-09-14T07:20:45;17.40;99.90
14172;DHT22;7165;52.388;4.928;2022-09-14T07:23:12;17.50;99.90
14172;DHT22;7165;52.388;4.928;2022-09-14T07:25:39;17.60;99.90
14172;DHT22;7165;52.388;4.928;2022-09-14T07:28:07;17.60;99.90
14172;DHT22;7165;52.388;4.928;2022-09-14T07:30:34;17.70;99.90
14172;DHT22;7165;52.388;4.928;2022-09-14T07:33:02;17.70;99.90
14172;DHT22;7165;52.388;4.928;2022-09-14T07:35:30;17.80;99.90
14172;DHT22;7165;52.388;4.928;2022-09-14T07:37:57;17.80;99.90
14172;DHT22;7165;52.388;4.928;2022-09-14T07:40:24;17.90;99.90
14172;DHT22;7165;52.388;4.928;2022-09-14T07:42:51;17.90;99.90
14172;DHT22;7165;52.388;4.928;2022-09-14T07:45:18;18.00;99.90
14172;DHT22;7165;52.388;4.928;2022-09-14T07:47:45;18.00;99.90
14172;DHT22;7165;52.388;4.928;2022-09-14T07:50:12;18.10;99.90
14172;DHT22;7165;52.388;4.928;2022-09-14T07:52:40;18.20;99.90
14172;DHT22;7165;52.388;4.928;2022-09-14T07:55:08;18.30;99.90
14172;DHT22;7165;52.388;4.928;2022-09-14T07:57:37;18.40;99.90
14172;DHT22;7165;52.388;4.928;2022-09-14T08:00:04;18.50;99.90
14172;DHT22;7165;52.388;4.928;2022-09-14T08:02:31;18.50;99.90
14172;DHT22;7165;52.388;4.928;2022-09-14T08:04:59;18.60;99.90
14172;DHT22;7165;52.388;4.928;2022-09-14T08:07:25;18.60;99.90
14172;DHT22;7165;52.388;4.928;2022-09-14T08:09:54;18.70;99.90
14172;DHT22;7165;52.388;4.928;2022-09-14T08:12:20;18.70;99.90
14172;DHT22;7165;52.388;4.928;2022-09-14T08:14:47;18.70;99.90
14172;DHT22;7165;52.388;4.928;2022-09-14T08:17:15;18.70;99.90
14172;DHT22;7165;52.388;4.928;2022-09-14T08:19:42;18.70;99.90
14172;DHT22;7165;52.388;4.928;2022-09-14T08:22:08;18.70;99.90
14172;DHT22;7165;52.388;4.928;2022-09-14T08:24:36;18.80;99.90
14172;DHT22;7165;52.388;4.928;2022-09-14T08:27:05;18.70;99.90
14172;DHT22;7165;52.388;4.928;2022-09-14T08:29:32;18.70;99.90
14172;DHT22;7165;52.388;4.928;2022-09-14T08:31:59;18.70;99.90
14172;DHT22;7165;52.388;4.928;2022-09-14T08:34:26;18.70;99.90
14172;DHT22;7165;52.388;4.928;2022-09-14T08:36:52;18.70;99.90
14172;DHT22;7165;52.388;4.928;2022-09-14T08:39:19;18.80;99.90
14172;DHT22;7165;52.388;4.928;2022-09-14T08:41:52;18.90;99.90
14172;DHT22;7165;52.388;4.928;2022-09-14T08:44:24;18.90;99.90
14172;DHT22;7165;52.388;4.928;2022-09-14T08:46:57;19.00;99.90
14172;DHT22;7165;52.388;4.928;2022-09-14T08:49:35;19.00;99.90
14172;DHT22;7165;52.388;4.928;2022-09-14T08:52:04;19.10;99.90
14172;DHT22;7165;52.388;4.928;2022-09-14T08:54:31;19.10;99.90
14172;DHT22;7165;52.388;4.928;2022-09-14T08:57:05;19.10;99.90
14172;DHT22;7165;52.388;4.928;2022-09-14T08:59:41;19.20;99.90
14172;DHT22;7165;52.388;4.928;2022-09-14T09:02:22;19.20;99.90
14172;DHT22;7165;52.388;4.928;2022-09-14T09:04:52;19.20;99.90
14172;DHT22;7165;52.388;4.928;2022-09-14T09:07:28;19.20;99.90
14172;DHT22;7165;52.388;4.928;2022-09-14T09:09:56;19.20;99.90
14172;DHT22;7165;52.388;4.928;2022-09-14T09:12:29;19.20;99.90
14172;DHT22;7165;52.388;4.928;2022-09-14T09:15:19;19.30;99.90
14172;DHT22;7165;52.388;4.928;2022-09-14T09:17:50;19.30;99.90
14172;DHT22;7165;52.388;4.928;2022-09-14T09:20:21;19.30;99.90
14172;DHT22;7165;52.388;4.928;2022-09-14T09:22:52;19.40;99.90
14172;DHT22;7165;52.388;4.928;2022-09-14T09:25:23;19.40;99.90
14172;DHT22;7165;52.388;4.928;2022-09-14T09:27:53;19.40;99.90
14172;DHT22;7165;52.388;4.928;2022-09-14T09:30:21;19.50;99.90
14172;DHT22;7165;52.388;4.928;2022-09-14T09:32:48;19.50;99.90
14172;DHT22;7165;52.388;4.928;2022-09-14T09:35:18;19.50;99.90
14172;DHT22;7165;52.388;4.928;2022-09-14T09:37:45;19.50;99.90
14172;DHT22;7165;52.388;4.928;2022-09-14T09:40:14;19.60;99.90
14172;DHT22;7165;52.388;4.928;2022-09-14T09:43:06;19.70;99.90
14172;DHT22;7165;52.388;4.928;2022-09-14T09:45:50;19.80;99.90
14172;DHT22;7165;52.388;4.928;2022-09-14T09:48:22;20.00;99.90
14172;DHT22;7165;52.388;4.928;2022-09-14T09:51:05;20.10;99.90
14172;DHT22;7165;52.388;4.928;2022-09-14T09:53:35;20.20;99.90
14172;DHT22;7165;52.388;4.928;2022-09-14T09:56:03;20.30;99.90
14172;DHT22;7165;52.388;4.928;2022-09-14T09:58:33;20.40;99.90
14172;DHT22;7165;52.388;4.928;2022-09-14T10:01:03;20.40;99.90
14172;DHT22;7165;52.388;4.928;2022-09-14T10:03:33;20.50;99.90
14172;DHT22;7165;52.388;4.928;2022-09-14T10:06:06;20.50;99.90
14172;DHT22;7165;52.388;4.928;2022-09-14T10:08:40;20.60;99.90
14172;DHT22;7165;52.388;4.928;2022-09-14T10:11:31;20.70;99.90
14172;DHT22;7165;52.388;4.928;2022-09-14T10:14:01;20.80;99.90
14172;DHT22;7165;52.388;4.928;2022-09-14T10:16:33;21.00;99.90
14172;DHT22;7165;52.388;4.928;2022-09-14T10:19:12;21.20;99.90
14172;DHT22;7165;52.388;4.928;2022-09-14T10:24:52;21.20;99.90
14172;DHT22;7165;52.388;4.928;2022-09-14T10:27:34;21.30;99.90
14172;DHT22;7165;52.388;4.928;2022-09-14T10:30:05;21.30;99.90
14172;DHT22;7165;52.388;4.928;2022-09-14T10:32:38;21.40;99.90
14172;DHT22;7165;52.388;4.928;2022-09-14T10:35:11;21.50;99.90
14172;DHT22;7165;52.388;4.928;2022-09-14T10:37:48;21.50;99.90
14172;DHT22;7165;52.388;4.928;2022-09-14T10:40:19;21.50;99.90
14172;DHT22;7165;52.388;4.928;2022-09-14T10:42:57;21.50;99.90
14172;DHT22;7165;52.388;4.928;2022-09-14T10:45:28;21.50;99.90
14172;DHT22;7165;52.388;4.928;2022-09-14T10:48:14;21.60;99.90
14172;DHT22;7165;52.388;4.928;2022-09-14T10:50:53;21.80;99.90
14172;DHT22;7165;52.388;4.928;2022-09-14T10:56:21;22.40;99.90
14172;DHT22;7165;52.388;4.928;2022-09-14T10:59:03;22.60;99.90
14172;DHT22;7165;52.388;4.928;2022-09-14T11:01:44;22.70;99.90
14172;DHT22;7165;52.388;4.928;2022-09-14T11:04:36;22.70;99.90
14172;DHT22;7165;52.388;4.928;2022-09-14T11:07:07;22.70;99.90
14172;DHT22;7165;52.388;4.928;2022-09-14T11:09:44;22.90;99.90
14172;DHT22;7165;52.388;4.928;2022-09-14T11:12:17;23.10;99.90
14172;DHT22;7165;52.388;4.928;2022-09-14T11:20:25;23.70;99.90
14172;DHT22;7165;52.388;4.928;2022-09-14T11:22:58;23.90;99.90
14172;DHT22;7165;52.388;4.928;2022-09-14T11:25:31;23.70;99.90
14172;DHT22;7165;52.388;4.928;2022-09-14T11:27:59;23.40;99.90
14172;DHT22;7165;52.388;4.928;2022-09-14T11:30:30;23.10;99.90
14172;DHT22;7165;52.388;4.928;2022-09-14T11:32:59;22.90;99.90
14172;DHT22;7165;52.388;4.928;2022-09-14T11:35:28;22.80;99.90
14172;DHT22;7165;52.388;4.928;2022-09-14T11:37:57;22.80;99.90
14172;DHT22;7165;52.388;4.928;2022-09-14T11:40:27;22.80;99.90
14172;DHT22;7165;52.388;4.928;2022-09-14T11:42:55;22.80;99.90
14172;DHT22;7165;52.388;4.928;2022-09-14T11:45:28;22.70;99.90
14172;DHT22;7165;52.388;4.928;2022-09-14T11:48:07;22.60;99.90
14172;DHT22;7165;52.388;4.928;2022-09-14T11:50:37;22.80;99.90
14172;DHT22;7165;52.388;4.928;2022-09-14T11:53:08;22.80;99.90
14172;DHT22;7165;52.388;4.928;2022-09-14T11:55:36;22.80;99.90
14172;DHT22;7165;52.388;4.928;2022-09-14T11:58:07;22.60;99.90
14172;DHT22;7165;52.388;4.928;2022-09-14T12:00:58;22.30;99.90
14172;DHT22;7165;52.388;4.928;2022-09-14T12:03:45;22.10;99.90
14172;DHT22;7165;52.388;4.928;2022-09-14T12:06:43;21.90;99.90
14172;DHT22;7165;52.388;4.928;2022-09-14T12:12:35;21.90;99.90
14172;DHT22;7165;52.388;4.928;2022-09-14T12:15:15;22.60;99.90
14172;DHT22;7165;52.388;4.928;2022-09-14T12:17:43;23.10;99.90
14172;DHT22;7165;52.388;4.928;2022-09-14T12:25:53;24.10;99.90
14172;DHT22;7165;52.388;4.928;2022-09-14T12:28:28;24.00;99.90
14172;DHT22;7165;52.388;4.928;2022-09-14T12:31:05;24.20;99.90
14172;DHT22;7165;52.388;4.928;2022-09-14T12:39:19;24.20;99.90
14172;DHT22;7165;52.388;4.928;2022-09-14T12:44:38;23.90;99.90
14172;DHT22;7165;52.388;4.928;2022-09-14T12:49:50;23.50;99.90
14172;DHT22;7165;52.388;4.928;2022-09-14T12:52:20;23.50;99.90
14172;DHT22;7165;52.388;4.928;2022-09-14T12:54:54;23.70;99.90
14172;DHT22;7165;52.388;4.928;2022-09-14T12:57:26;24.00;99.90
14172;DHT22;7165;52.388;4.928;2022-09-14T12:59:59;24.10;99.90
14172;DHT22;7165;52.388;4.928;2022-09-14T13:02:36;24.50;99.90
14172;DHT22;7165;52.388;4.928;2022-09-14T13:05:04;24.80;99.90
14172;DHT22;7165;52.388;4.928;2022-09-14T13:07:33;24.60;99.90
14172;DHT22;7165;52.388;4.928;2022-09-14T13:10:00;24.30;99.90
14172;DHT22;7165;52.388;4.928;2022-09-14T13:12:28;24.10;99.90
14172;DHT22;7165;52.388;4.928;2022-09-14T13:14:59;24.00;99.90
14172;DHT22;7165;52.388;4.928;2022-09-14T13:17:27;23.90;99.90
14172;DHT22;7165;52.388;4.928;2022-09-14T13:19:54;23.70;99.90
14172;DHT22;7165;52.388;4.928;2022-09-14T13:22:22;23.60;99.90
14172;DHT22;7165;52.388;4.928;2022-09-14T13:24:49;23.50;99.90
14172;DHT22;7165;52.388;4.928;2022-09-14T13:27:19;23.40;99.90
14172;DHT22;7165;52.388;4.928;2022-09-14T13:29:46;23.30;99.90
14172;DHT22;7165;52.388;4.928;2022-09-14T13:32:16;23.30;99.90
14172;DHT22;7165;52.388;4.928;2022-09-14T13:34:43;23.20;99.90
14172;DHT22;7165;52.388;4.928;2022-09-14T13:37:11;23.20;99.90
14172;DHT22;7165;52.388;4.928;2022-09-14T13:39:38;23.20;99.90
14172;DHT22;7165;52.388;4.928;2022-09-14T13:42:06;23.30;99.90
14172;DHT22;7165;52.388;4.928;2022-09-14T13:44:33;23.30;99.90
14172;DHT22;7165;52.388;4.928;2022-09-14T13:47:01;23.40;99.90
14172;DHT22;7165;52.388;4.928;2022-09-14T13:49:30;23.30;99.90
14172;DHT22;7165;52.388;4.928;2022-09-14T13:54:41;23.10;99.90
14172;DHT22;7165;52.388;4.928;2022-09-14T13:57:09;23.00;99.90
14172;DHT22;7165;52.388;4.928;2022-09-14T13:59:36;22.80;99.90
14172;DHT22;7165;52.388;4.928;2022-09-14T14:02:23;22.70;99.90
14172;DHT22;7165;52.388;4.928;2022-09-14T14:04:53;22.60;99.90
14172;DHT22;7165;52.388;4.928;2022-09-14T14:07:20;22.60;99.90
14172;DHT22;7165;52.388;4.928;2022-09-14T14:09:48;22.60;99.90
14172;DHT22;7165;52.388;4.928;2022-09-14T14:12:22;22.70;99.90
14172;DHT22;7165;52.388;4.928;2022-09-14T14:14:53;22.80;99.90
14172;DHT22;7165;52.388;4.928;2022-09-14T14:17:24;22.70;99.90
14172;DHT22;7165;52.388;4.928;2022-09-14T14:19:58;22.80;99.90
14172;DHT22;7165;52.388;4.928;2022-09-14T14:22:26;22.70;99.90
14172;DHT22;7165;52.388;4.928;2022-09-14T14:24:53;22.70;99.90
14172;DHT22;7165;52.388;4.928;2022-09-14T14:27:27;22.60;99.90
14172;DHT22;7165;52.388;4.928;2022-09-14T14:29:54;22.50;99.90
14172;DHT22;7165;52.388;4.928;2022-09-14T14:32:21;22.40;99.90
14172;DHT22;7165;52.388;4.928;2022-09-14T14:34:48;22.20;99.90
14172;DHT22;7165;52.388;4.928;2022-09-14T14:37:18;22.10;99.90
14172;DHT22;7165;52.388;4.928;2022-09-14T14:39:45;22.00;99.90
14172;DHT22;7165;52.388;4.928;2022-09-14T14:42:13;22.00;99.90
14172;DHT22;7165;52.388;4.928;2022-09-14T14:44:41;21.90;99.90
14172;DHT22;7165;52.388;4.928;2022-09-14T14:47:09;21.90;99.90
14172;DHT22;7165;52.388;4.928;2022-09-14T14:49:37;21.80;99.90
14172;DHT22;7165;52.388;4.928;2022-09-14T14:52:04;21.80;99.90
14172;DHT22;7165;52.388;4.928;2022-09-14T14:54:32;21.70;99.90
14172;DHT22;7165;52.388;4.928;2022-09-14T14:56:59;21.70;99.90
14172;DHT22;7165;52.388;4.928;2022-09-14T14:59:28;21.60;99.90
14172;DHT22;7165;52.388;4.928;2022-09-14T15:01:56;21.50;99.90
14172;DHT22;7165;52.388;4.928;2022-09-14T15:04:23;21.40;99.90
14172;DHT22;7165;52.388;4.928;2022-09-14T15:06:51;21.30;99.90
14172;DHT22;7165;52.388;4.928;2022-09-14T15:09:20;21.20;99.90
14172;DHT22;7165;52.388;4.928;2022-09-14T15:11:48;21.20;99.90
14172;DHT22;7165;52.388;4.928;2022-09-14T15:14:17;21.10;99.90
14172;DHT22;7165;52.388;4.928;2022-09-14T15:16:44;21.10;99.90
14172;DHT22;7165;52.388;4.928;2022-09-14T15:19:12;21.00;99.90
14172;DHT22;7165;52.388;4.928;2022-09-14T15:21:40;20.90;99.90
14172;DHT22;7165;52.388;4.928;2022-09-14T15:24:07;20.80;99.90
14172;DHT22;7165;52.388;4.928;2022-09-14T15:26:34;20.70;99.90
14172;DHT22;7165;52.388;4.928;2022-09-14T15:29:03;20.60;99.90
14172;DHT22;7165;52.388;4.928;2022-09-14T15:31:30;20.60;99.90
14172;DHT22;7165;52.388;4.928;2022-09-14T15:33:56;20.60;99.90
14172;DHT22;7165;52.388;4.928;2022-09-14T15:36:38;20.70;99.90
14172;DHT22;7165;52.388;4.928;2022-09-14T15:39:06;20.70;99.90
14172;DHT22;7165;52.388;4.928;2022-09-14T15:41:33;20.70;99.90
14172;DHT22;7165;52.388;4.928;2022-09-14T15:44:02;20.70;99.90
14172;DHT22;7165;52.388;4.928;2022-09-14T15:46:29;20.80;99.90
14172;DHT22;7165;52.388;4.928;2022-09-14T15:48:56;20.80;99.90
14172;DHT22;7165;52.388;4.928;2022-09-14T15:51:23;20.80;99.90
14172;DHT22;7165;52.388;4.928;2022-09-14T15:53:50;20.80;99.90
14172;DHT22;7165;52.388;4.928;2022-09-14T15:56:18;20.80;99.90
14172;DHT22;7165;52.388;4.928;2022-09-14T15:58:45;20.80;99.90
14172;DHT22;7165;52.388;4.928;2022-09-14T16:01:15;20.70;99.90
14172;DHT22;7165;52.388;4.928;2022-09-14T16:03:42;20.70;99.90
14172;DHT22;7165;52.388;4.928;2022-09-14T16:06:09;20.70;99.90
14172;DHT22;7165;52.388;4.928;2022-09-14T16:08:36;20.80;99.90
14172;DHT22;7165;52.388;4.928;2022-09-14T16:11:04;20.90;99.90
14172;DHT22;7165;52.388;4.928;2022-09-14T16:13:49;21.10;99.90
14172;DHT22;7165;52.388;4.928;2022-09-14T16:16:18;21.10;99.90
14172;DHT22;7165;52.388;4.928;2022-09-14T16:18:45;21.00;99.90
14172;DHT22;7165;52.388;4.928;2022-09-14T16:21:16;20.90;99.90
14172;DHT22;7165;52.388;4.928;2022-09-14T16:23:45;20.90;99.90
14172;DHT22;7165;52.388;4.928;2022-09-14T16:26:15;20.90;99.90
14172;DHT22;7165;52.388;4.928;2022-09-14T16:28:55;20.90;99.90
14172;DHT22;7165;52.388;4.928;2022-09-14T16:31:26;20.90;99.90
14172;DHT22;7165;52.388;4.928;2022-09-14T16:33:54;20.90;99.90
14172;DHT22;7165;52.388;4.928;2022-09-14T16:36:23;20.80;99.90
14172;DHT22;7165;52.388;4.928;2022-09-14T16:38:51;20.70;99.90